Time;durP1;ratioP1;P1;durP2;ratioP2;P2;SDS_P1;SDS_P2;PMS_P1;PMS_P2;Temp;Humidity;BMP_temperature;BMP_pressure;BME280_temperature;BME280_humidity;BME280_pressure;Samples;Min_cycle;Max_cycle;Signal;HPM_P1;HPM_P2
2022/05/23 00:00:07;;;;;;;3.70;1.60;;;;;;;17.29;43.52;93512.88;5122710;28;20096;-76
2022/05/23 00:02:33;;;;;;;5.40;2.10;;;;;;;17.30;43.24;93516.31;5122855;28;20019;-76
2022/05/23 00:04:58;;;;;;;3.67;1.83;;;;;;;17.30;43.59;93517.13;5123137;28;20390;-76
2022/05/23 00:07:29;;;;;;;8.32;1.88;;;;;;;17.21;43.83;93522.75;5123151;28;20020;-76
2022/05/23 00:09:54;;;;;;;4.18;1.80;;;;;;;17.19;43.72;93516.19;5122877;28;20046;-76
2022/05/23 00:12:22;;;;;;;5.65;2.05;;;;;;;17.24;43.61;93527.44;5122843;28;20087;-76
2022/05/23 00:14:47;;;;;;;3.50;1.50;;;;;;;17.23;43.65;93519.69;5122505;28;20031;-76
2022/05/23 00:17:13;;;;;;;10.55;1.60;;;;;;;17.23;43.52;93527.78;5122598;28;20191;-76
2022/05/23 00:19:39;;;;;;;6.07;1.60;;;;;;;17.22;43.55;93528.94;5122537;28;20367;-76
2022/05/23 00:22:05;;;;;;;5.93;1.60;;;;;;;17.18;43.38;93503.88;5123063;28;20050;-76
2022/05/23 00:24:31;;;;;;;5.78;1.67;;;;;;;17.15;43.63;93509.97;5126234;28;20237;-76
2022/05/23 00:26:56;;;;;;;7.00;1.55;;;;;;;17.14;43.69;93509.19;5126343;28;20019;-76
2022/05/23 00:29:22;;;;;;;4.50;1.38;;;;;;;17.17;44.00;93521.16;5126493;28;20035;-76
2022/05/23 00:37:21;;;;;;;2.65;1.40;;;;;;;17.14;43.93;93498.44;5126281;28;20030;-76
2022/05/23 00:39:46;;;;;;;2.60;1.58;;;;;;;17.14;44.10;93503.03;5126024;28;20031;-76
2022/05/23 00:44:59;;;;;;;5.00;1.58;;;;;;;17.10;44.08;93510.28;5125876;28;20077;-76
2022/05/23 00:47:28;;;;;;;10.60;1.60;;;;;;;17.12;44.39;93510.72;5125738;28;20338;-76
2022/05/23 00:49:53;;;;;;;3.65;1.45;;;;;;;17.02;44.05;93515.56;5125809;28;20026;-76
2022/05/23 00:52:29;;;;;;;3.33;1.95;;;;;;;16.98;44.20;93517.41;5125665;28;20019;-76
2022/05/23 00:54:58;;;;;;;2.20;1.20;;;;;;;16.98;44.65;93517.41;5125598;28;20020;-75
2022/05/23 00:57:31;;;;;;;2.30;1.27;;;;;;;16.92;44.31;93521.56;5125745;28;20090;-76
2022/05/23 00:59:59;;;;;;;4.90;1.70;;;;;;;16.95;44.59;93510.06;5125573;28;20024;-76
2022/05/23 01:02:24;;;;;;;8.80;1.52;;;;;;;16.91;44.75;93517.28;5125420;28;20031;-75
2022/05/23 01:04:51;;;;;;;2.70;1.38;;;;;;;16.88;44.97;93526.09;5125304;28;20352;-75
2022/05/23 01:07:16;;;;;;;4.53;1.42;;;;;;;16.86;45.22;93519.53;5125223;28;20047;-75
2022/05/23 01:09:42;;;;;;;3.03;1.63;;;;;;;16.85;45.49;93518.75;5125472;28;20019;-75
2022/05/23 01:12:08;;;;;;;6.00;1.92;;;;;;;16.86;45.50;93520.31;5125341;28;20371;-75
2022/05/23 01:14:55;;;;;;;5.07;1.77;;;;;;;16.79;46.05;93520.94;5125352;28;20070;-74
2022/05/23 01:17:22;;;;;;;4.72;1.80;;;;;;;16.80;46.50;93517.09;5125356;28;20342;-75
2022/05/23 01:19:49;;;;;;;4.82;1.73;;;;;;;16.75;45.98;93522.00;5125223;28;20086;-74
2022/05/23 01:22:40;;;;;;;3.83;1.65;;;;;;;16.77;46.38;93512.47;5125247;28;20023;-76
2022/05/23 01:25:22;;;;;;;6.50;2.47;;;;;;;16.77;46.66;93511.66;5125252;28;20061;-76
2022/05/23 01:27:49;;;;;;;4.35;1.98;;;;;;;16.74;46.77;93493.56;5125240;28;20039;-76
2022/05/23 01:30:16;;;;;;;3.33;1.83;;;;;;;16.69;46.95;93494.66;5125045;28;20024;-76
2022/05/23 01:32:41;;;;;;;6.47;1.90;;;;;;;16.70;46.99;93495.41;5124414;28;20209;-76
2022/05/23 01:35:09;;;;;;;3.55;2.03;;;;;;;16.69;47.33;93494.66;5124852;28;20030;-76
2022/05/23 01:37:35;;;;;;;6.55;3.08;;;;;;;16.64;47.74;93498.41;5125099;28;20024;-76
2022/05/23 01:40:01;;;;;;;5.18;2.42;;;;;;;16.69;48.16;93499.22;5124862;28;20088;-76
2022/05/23 01:42:26;;;;;;;5.88;2.97;;;;;;;16.63;48.30;93488.00;5125253;28;20221;-76
2022/05/23 01:44:52;;;;;;;4.50;2.70;;;;;;;16.63;48.48;93491.47;5125144;28;20023;-77
2022/05/23 01:47:20;;;;;;;8.77;2.92;;;;;;;16.57;48.89;93482.16;5124825;28;20043;-77
2022/05/23 01:49:46;;;;;;;5.63;2.42;;;;;;;16.50;49.42;93500.84;5124757;28;20053;-76
2022/05/23 01:52:12;;;;;;;5.70;2.90;;;;;;;16.51;49.14;93499.72;5124455;28;20219;-77
2022/05/23 01:54:38;;;;;;;10.68;2.50;;;;;;;16.43;49.31;93493.44;5124795;28;20032;-75
2022/05/23 01:57:05;;;;;;;5.32;2.60;;;;;;;16.37;49.52;93510.25;5124630;28;20028;-76
2022/05/23 02:02:15;;;;;;;6.82;3.22;;;;;;;16.27;50.41;93497.38;5124606;28;20038;-77
2022/05/23 02:04:40;;;;;;;6.22;3.05;;;;;;;16.16;51.57;93497.97;5124303;28;20043;-77
2022/05/23 02:07:06;;;;;;;4.88;2.53;;;;;;;16.14;51.79;93505.63;5124614;28;20035;-77
2022/05/23 02:09:33;;;;;;;5.70;2.60;;;;;;;16.11;51.91;93486.72;5124589;28;20386;-77
2022/05/23 02:11:59;;;;;;;5.18;2.80;;;;;;;16.11;51.67;93492.09;5124449;28;20019;-77
2022/05/23 02:14:25;;;;;;;5.55;2.70;;;;;;;16.14;51.42;93492.19;5124491;28;20027;-77
2022/05/23 02:16:50;;;;;;;3.50;2.53;;;;;;;16.15;51.60;93501.00;5124226;28;20027;-77
2022/05/23 02:19:16;;;;;;;8.23;2.60;;;;;;;16.17;51.67;93493.38;5124215;28;20050;-76
2022/05/23 02:21:42;;;;;;;3.67;2.50;;;;;;;16.21;51.65;93492.28;5124094;28;20019;-76
2022/05/23 02:24:07;;;;;;;7.40;2.70;;;;;;;16.24;51.54;93486.22;5124042;28;20011;-76
2022/05/23 02:26:33;;;;;;;8.32;2.88;;;;;;;16.27;51.79;93503.53;5124039;28;20038;-77
2022/05/23 02:28:59;;;;;;;4.50;2.58;;;;;;;16.28;51.90;93507.00;5124053;28;20035;-77
2022/05/23 02:31:26;;;;;;;6.05;2.83;;;;;;;16.25;51.89;93501.19;5124128;28;20228;-76
2022/05/23 02:33:51;;;;;;;5.63;2.72;;;;;;;16.30;51.65;93499.34;5123878;28;20241;-77
2022/05/23 02:36:17;;;;;;;12.07;3.90;;;;;;;16.34;51.72;93502.88;5123878;28;20086;-77
2022/05/23 02:38:42;;;;;;;5.57;2.80;;;;;;;16.31;51.48;93504.38;5123779;28;20027;-76
2022/05/23 02:41:08;;;;;;;6.43;3.72;;;;;;;16.36;51.34;93492.53;5123848;28;20057;-76
2022/05/23 02:43:33;;;;;;;6.97;2.65;;;;;;;16.35;51.54;93491.00;5123724;28;20019;-76
2022/05/23 02:45:59;;;;;;;8.20;2.80;;;;;;;16.38;51.18;93491.03;5123197;28;20028;-75
2022/05/23 02:48:24;;;;;;;4.57;2.33;;;;;;;16.42;51.16;93496.50;5123583;28;20290;-75
2022/05/23 02:50:50;;;;;;;6.78;2.38;;;;;;;16.41;50.82;93511.09;5123466;28;20218;-75
2022/05/23 02:53:15;;;;;;;4.50;2.35;;;;;;;16.41;49.85;93493.03;5123644;28;20318;-75
2022/05/23 02:55:41;;;;;;;4.00;2.42;;;;;;;16.48;50.01;93492.38;5123640;28;20091;-76
2022/05/23 02:58:10;;;;;;;4.88;2.40;;;;;;;16.53;49.90;93488.63;5123530;28;20203;-75
2022/05/23 03:00:36;;;;;;;3.42;1.83;;;;;;;16.56;49.28;93491.34;5123503;28;20027;-76
2022/05/23 03:03:01;;;;;;;7.43;2.55;;;;;;;16.59;49.34;93495.25;5123328;28;20027;-76
2022/05/23 03:05:32;;;;;;;5.15;2.20;;;;;;;16.62;49.67;93497.97;5123595;28;20065;-76
2022/05/23 03:07:57;;;;;;;4.32;2.28;;;;;;;16.65;48.82;93491.91;5123695;28;20038;-76
2022/05/23 03:10:23;;;;;;;4.45;2.70;;;;;;;16.72;49.01;93490.44;5123369;28;20023;-75
2022/05/23 03:12:49;;;;;;;3.40;1.88;;;;;;;16.75;48.63;93492.41;5123222;28;20039;-76
2022/05/23 03:15:14;;;;;;;4.88;2.08;;;;;;;16.76;48.62;93491.28;5123342;28;20218;-76
2022/05/23 03:17:40;;;;;;;3.15;2.13;;;;;;;16.77;48.40;93488.25;5123391;28;20024;-75
2022/05/23 03:20:07;;;;;;;4.22;2.05;;;;;;;16.83;47.89;93484.13;5123283;28;20234;-75
2022/05/23 03:28:01;;;;;;;5.60;2.20;;;;;;;16.89;48.59;93478.44;5123099;28;20095;-75
2022/05/23 03:30:28;;;;;;;5.75;2.80;;;;;;;16.93;48.66;93480.03;5123239;28;20019;-75
2022/05/23 03:32:54;;;;;;;4.70;2.13;;;;;;;16.94;48.99;93478.91;5122872;28;20065;-75
2022/05/23 03:35:20;;;;;;;3.85;2.05;;;;;;;16.95;48.87;93477.75;5123057;28;20480;-75
2022/05/23 03:37:45;;;;;;;5.28;2.10;;;;;;;16.91;48.80;93479.63;5123109;28;20090;-75
2022/05/23 03:40:11;;;;;;;4.72;2.35;;;;;;;16.97;48.73;93493.53;5123108;28;20036;-75
2022/05/23 03:42:37;;;;;;;5.85;2.38;;;;;;;16.95;49.08;93496.59;5123022;28;20024;-75
2022/05/23 03:45:03;;;;;;;2.80;1.63;;;;;;;16.93;48.54;93482.72;5122950;28;20031;-75
2022/05/23 03:47:29;;;;;;;4.38;1.77;;;;;;;16.94;47.95;93478.13;5122982;28;20070;-75
2022/05/23 03:49:54;;;;;;;6.15;2.42;;;;;;;16.94;48.35;93483.53;5122885;28;20315;-76
2022/05/23 03:52:20;;;;;;;4.32;2.15;;;;;;;16.98;48.56;93489.72;5123016;28;20078;-76
2022/05/23 03:54:46;;;;;;;4.50;2.45;;;;;;;16.96;48.20;93487.41;5122985;28;20092;-76
2022/05/23 03:57:11;;;;;;;4.85;2.13;;;;;;;16.95;46.50;93491.22;5125071;28;20247;-76
2022/05/23 03:59:37;;;;;;;4.80;1.80;;;;;;;16.96;46.61;93489.31;5127011;28;20268;-75
2022/05/23 04:02:02;;;;;;;2.63;1.63;;;;;;;16.98;46.65;93479.72;5126903;28;20057;-76
2022/05/23 04:04:29;;;;;;;6.32;1.50;;;;;;;17.01;46.04;93481.69;5127006;28;20027;-76
2022/05/23 04:06:59;;;;;;;3.15;1.58;;;;;;;17.07;46.80;93492.94;5126685;28;20031;-76
2022/05/23 04:09:25;;;;;;;7.30;1.85;;;;;;;17.11;46.52;93488.38;5126600;28;20097;-76
2022/05/23 04:11:51;;;;;;;5.72;1.92;;;;;;;17.11;46.69;93488.38;5126392;28;20035;-75
2022/05/23 04:14:16;;;;;;;4.10;1.83;;;;;;;17.15;46.69;93485.72;5126406;28;20195;-76
2022/05/23 04:16:46;;;;;;;3.83;1.70;;;;;;;17.18;47.05;93485.78;5126541;28;20049;-75
2022/05/23 04:19:11;;;;;;;10.77;2.00;;;;;;;17.18;46.68;93483.09;5126476;28;20326;-76
2022/05/23 04:21:42;;;;;;;3.17;1.75;;;;;;;17.21;46.04;93482.34;5126541;28;20047;-75
2022/05/23 04:24:09;;;;;;;6.05;2.20;;;;;;;17.34;46.05;93482.13;5126172;28;20027;-75
2022/05/23 04:26:34;;;;;;;9.05;2.00;;;;;;;17.47;46.43;93485.41;5126193;28;20032;-75
2022/05/23 04:29:00;;;;;;;7.60;2.00;;;;;;;17.47;46.12;93482.72;5126556;28;20022;-76
2022/05/23 04:31:25;;;;;;;11.15;2.28;;;;;;;17.52;45.20;93477.75;5126263;28;20333;-75
2022/05/23 04:36:35;;;;;;;9.85;1.55;;;;;;;17.60;44.97;93484.00;5126064;28;20080;-75
2022/05/23 04:39:00;;;;;;;4.03;1.85;;;;;;;17.62;45.78;93492.50;5126194;28;20024;-76
2022/05/23 04:41:26;;;;;;;2.88;1.48;;;;;;;17.56;45.82;93480.50;5125974;28;20019;-75
2022/05/23 04:43:51;;;;;;;4.10;1.42;;;;;;;17.55;45.86;93498.59;5126030;28;20039;-75
2022/05/23 04:46:17;;;;;;;7.50;1.42;;;;;;;17.48;46.03;93486.94;5125894;28;20038;-75
2022/05/23 04:51:27;;;;;;;5.25;2.00;;;;;;;17.45;46.76;93478.44;5125979;28;20065;-75
2022/05/23 04:53:56;;;;;;;5.88;2.00;;;;;;;17.47;46.02;93470.00;5125596;28;20023;-75
2022/05/23 04:56:22;;;;;;;4.15;2.17;;;;;;;17.56;46.06;93458.94;5125944;28;20359;-74
2022/05/23 04:58:48;;;;;;;3.35;1.60;;;;;;;17.56;46.54;93459.72;5125840;28;20019;-75
2022/05/23 05:01:14;;;;;;;3.55;1.38;;;;;;;17.60;44.98;93470.53;5125777;28;20024;-75
2022/05/23 05:03:39;;;;;;;3.85;1.70;;;;;;;17.69;45.33;93471.06;5125379;28;20318;-75
2022/05/23 05:06:05;;;;;;;5.40;1.67;;;;;;;17.83;46.01;93473.94;5125143;28;20217;-76
2022/05/23 05:08:30;;;;;;;6.05;1.90;;;;;;;17.97;45.36;93472.53;5124738;28;20027;-76
2022/05/23 05:10:57;;;;;;;4.03;1.88;;;;;;;18.07;45.44;93479.94;5125577;28;20058;-75
2022/05/23 05:13:24;;;;;;;3.50;1.70;;;;;;;18.10;44.74;93464.97;5125421;28;20030;-76
2022/05/23 05:15:49;;;;;;;8.07;2.05;;;;;;;18.07;43.76;93471.88;5125416;28;20019;-76
2022/05/23 05:18:15;;;;;;;4.05;1.77;;;;;;;17.97;44.07;93462.53;5125077;28;20091;-75
2022/05/23 05:20:40;;;;;;;2.60;1.50;;;;;;;18.00;44.71;93467.19;5125181;28;20023;-75
2022/05/23 05:23:06;;;;;;;7.00;1.25;;;;;;;18.06;44.42;93467.63;5125115;28;20011;-75
2022/05/23 05:25:32;;;;;;;4.57;2.03;;;;;;;18.07;44.31;93461.06;5125166;28;20012;-75
2022/05/23 05:27:57;;;;;;;4.50;1.88;;;;;;;18.16;45.18;93458.09;5125140;28;20094;-73
2022/05/23 05:30:23;;;;;;;2.50;1.73;;;;;;;18.19;45.27;93450.03;5124894;28;20023;-73
2022/05/23 05:32:48;;;;;;;6.22;1.58;;;;;;;18.28;43.75;93454.34;5124508;28;20015;-79
2022/05/23 05:35:31;;;;;;;3.58;1.60;;;;;;;18.29;44.29;93440.50;5125316;28;20023;-79
2022/05/23 05:38:13;;;;;;;2.55;1.63;;;;;;;18.28;44.08;93449.75;5125018;28;20023;-77
2022/05/23 05:40:40;;;;;;;5.40;1.50;;;;;;;18.34;44.21;93448.25;5124806;28;20031;-77
2022/05/23 05:43:12;;;;;;;4.47;1.73;;;;;;;18.37;43.05;93471.78;5124673;28;20246;-77
2022/05/23 05:45:39;;;;;;;;;;;;;;;18.40;42.72;93467.59;5124971;28;20019;-78
2022/05/23 05:48:05;;;;;;;6.88;1.70;;;;;;;18.45;42.53;93476.09;5124770;28;19916;-77
2022/05/23 05:50:35;;;;;;;7.32;1.77;;;;;;;18.58;42.61;93490.09;5124947;28;20068;-79
2022/05/23 05:53:08;;;;;;;5.50;1.92;;;;;;;18.64;42.64;93485.91;5124819;28;20051;-79
2022/05/23 05:55:33;;;;;;;3.63;1.25;;;;;;;18.56;41.64;93492.41;5124843;28;20043;-79
2022/05/23 05:57:59;;;;;;;5.20;1.88;;;;;;;18.50;42.16;93477.69;5124720;28;20226;-79
2022/05/23 06:00:25;;;;;;;6.90;1.83;;;;;;;18.45;42.46;93483.41;5124522;28;20136;-78
2022/05/23 06:02:50;;;;;;;5.47;1.85;;;;;;;18.43;43.35;93481.09;5124461;28;20095;-79
2022/05/23 06:05:17;;;;;;;8.02;1.65;;;;;;;18.44;42.90;93479.94;5106251;28;20019;-79
2022/05/23 06:13:14;;;;;;;4.10;1.58;;;;;;;18.54;43.80;93473.09;5124318;28;20360;-76
2022/05/23 06:15:39;;;;;;;4.53;1.70;;;;;;;18.59;43.43;93459.25;5124271;28;20020;-77
2022/05/23 06:18:05;;;;;;;7.35;2.00;;;;;;;18.64;43.29;93458.91;5124186;28;20019;-80
2022/05/23 06:20:30;;;;;;;3.72;1.65;;;;;;;18.74;43.98;93459.38;5124253;28;20217;-81
2022/05/23 06:22:57;;;;;;;3.22;1.55;;;;;;;18.83;42.74;93449.81;5124224;28;20051;-82
2022/05/23 06:25:23;;;;;;;3.10;1.30;;;;;;;18.93;40.64;93456.47;5124080;28;20077;-82
2022/05/23 06:27:49;;;;;;;3.95;1.77;;;;;;;19.07;41.85;93455.78;5123887;28;20023;-82
2022/05/23 06:30:17;;;;;;;3.40;1.30;;;;;;;19.22;41.14;93454.69;5123899;28;20031;-81
2022/05/23 06:32:42;;;;;;;4.90;2.00;;;;;;;19.42;40.62;93454.44;5124036;28;20028;-82
2022/05/23 06:35:08;;;;;;;2.67;1.40;;;;;;;19.51;40.83;93446.75;5123781;28;20065;-81
2022/05/23 06:37:35;;;;;;;2.70;1.70;;;;;;;19.55;37.36;93441.34;5123549;28;20317;-80
2022/05/23 06:40:04;;;;;;;6.15;1.60;;;;;;;19.69;39.46;93446.81;5123961;28;20084;-81
2022/05/23 06:42:30;;;;;;;2.10;1.27;;;;;;;19.65;38.20;93435.22;5123774;28;20061;-81
2022/05/23 06:44:55;;;;;;;2.67;1.17;;;;;;;19.71;37.94;93422.91;5123910;28;20051;-80
2022/05/23 06:47:21;;;;;;;5.63;1.55;;;;;;;19.77;37.99;93442.25;5123725;28;20269;-81
2022/05/23 06:49:46;;;;;;;5.45;1.30;;;;;;;19.70;37.36;93442.97;5123662;28;20027;-81
2022/05/23 06:52:15;;;;;;;8.23;1.40;;;;;;;19.81;36.91;93429.50;5123539;28;20086;-77
2022/05/23 06:54:43;;;;;;;6.00;1.45;;;;;;;19.69;37.15;93446.81;5123434;28;20192;-87
2022/05/23 06:57:09;;;;;;;4.22;1.33;;;;;;;19.72;36.63;93435.28;5123824;28;20029;-80
2022/05/23 06:59:35;;;;;;;5.40;2.08;;;;;;;19.75;36.90;93444.56;5123814;28;20015;-81
2022/05/23 07:02:01;;;;;;;7.63;1.77;;;;;;;19.73;35.89;93439.53;5123775;28;20034;-79
2022/05/23 07:12:19;;;;;;;7.55;1.55;;;;;;;19.76;37.01;93433.38;5123422;28;20023;-79
2022/05/23 07:12:46;;;;;;;5.17;1.77;;;;;;;20.07;38.42;93450.06;5123133;28;20023;-77
2022/05/23 07:15:12;;;;;;;12.85;1.83;;;;;;;20.14;37.41;93439.25;5122852;28;20027;-77
2022/05/23 07:17:37;;;;;;;2.60;1.48;;;;;;;20.15;38.18;93440.81;5123193;28;20270;-76
2022/05/23 07:20:03;;;;;;;4.20;1.73;;;;;;;19.98;38.78;93446.94;5123407;28;20069;-75
2022/05/23 07:22:28;;;;;;;8.18;1.60;;;;;;;19.97;38.46;93454.28;5123169;28;20031;-76
2022/05/23 07:24:54;;;;;;;4.55;1.60;;;;;;;19.84;38.32;93448.47;5123168;28;20031;-76
2022/05/23 07:27:27;;;;;;;5.72;1.58;;;;;;;19.84;37.79;93448.47;5123322;28;20043;-76
2022/05/23 07:29:53;;;;;;;11.35;1.70;;;;;;;19.94;38.42;93456.97;5123025;28;20042;-77
2022/05/23 07:32:18;;;;;;;6.70;1.60;;;;;;;19.84;38.91;93459.28;5125455;28;20019;-77
2022/05/23 07:34:44;;;;;;;10.70;2.00;;;;;;;19.90;38.39;93446.13;5127399;28;20020;-77
2022/05/23 07:37:10;;;;;;;7.03;1.77;;;;;;;19.97;38.79;93440.00;5127209;28;20020;-78
2022/05/23 07:39:37;;;;;;;3.63;1.77;;;;;;;20.01;40.21;93443.47;5127178;28;20133;-76
2022/05/23 07:42:04;;;;;;;6.22;1.98;;;;;;;19.99;38.61;93438.44;5127330;28;20022;-74
2022/05/23 07:44:29;;;;;;;6.50;1.60;;;;;;;20.00;38.73;93441.91;5126994;28;20023;-74
2022/05/23 07:46:56;;;;;;;4.10;2.08;;;;;;;20.10;38.13;93435.00;5127151;28;20106;-74
2022/05/23 07:49:22;;;;;;;4.50;1.40;;;;;;;20.12;38.24;93441.56;5127033;28;20207;-74
2022/05/23 07:51:47;;;;;;;11.18;2.10;;;;;;;20.07;39.12;93431.13;5127061;28;20069;-75
2022/05/23 08:02:25;;;;;;;6.25;2.60;;;;;;;20.39;41.17;93433.09;5126730;28;20546;-75
2022/05/23 08:04:50;;;;;;;5.35;2.28;;;;;;;20.43;38.59;93442.00;5126715;28;20035;-78
2022/05/23 08:07:16;;;;;;;6.68;2.53;;;;;;;20.48;40.59;93473.34;5126520;28;20019;-76
2022/05/23 08:09:41;;;;;;;6.00;2.20;;;;;;;20.41;39.17;93450.50;5126630;28;20322;-74
2022/05/23 08:12:09;;;;;;;5.85;2.15;;;;;;;20.44;41.44;93443.56;5126692;28;20226;-74
2022/05/23 08:14:34;;;;;;;6.78;2.40;;;;;;;20.46;40.87;93451.28;5126589;28;20020;-77
2022/05/23 08:17:00;;;;;;;4.05;1.80;;;;;;;20.44;39.40;93446.25;5126569;28;20023;-75
2022/05/23 08:19:25;;;;;;;5.50;1.83;;;;;;;20.43;38.76;93440.06;5126448;28;20222;-76
2022/05/23 08:21:54;;;;;;;8.95;1.70;;;;;;;20.55;38.10;93446.25;5126151;28;20310;-75
2022/05/23 08:24:19;;;;;;;7.65;1.92;;;;;;;20.64;40.10;93433.16;5126395;28;20221;-73
2022/05/23 08:26:45;;;;;;;7.20;2.70;;;;;;;20.75;42.76;93435.84;5126385;28;20043;-74
2022/05/23 08:29:11;;;;;;;16.85;4.57;;;;;;;20.81;40.42;93440.47;5126222;28;20214;-75
2022/05/23 08:31:37;;;;;;;4.50;1.88;;;;;;;20.70;40.02;93452.47;5125827;28;20080;-72
2022/05/23 08:34:03;;;;;;;8.35;2.17;;;;;;;20.63;40.90;93462.13;5126128;28;20024;-73
2022/05/23 08:36:29;;;;;;;7.15;3.03;;;;;;;20.59;38.67;93447.81;5125925;28;20043;-73
2022/05/23 08:38:54;;;;;;;5.07;1.60;;;;;;;20.79;38.91;93450.16;5125544;28;20208;-73
2022/05/23 08:41:33;;;;;;;4.28;1.45;;;;;;;21.06;37.59;93436.19;5125615;28;20031;-73
2022/05/23 08:44:24;;;;;;;4.43;1.60;;;;;;;21.27;38.50;93441.59;5124536;28;20018;-73
2022/05/23 08:47:08;;;;;;;13.00;2.25;;;;;;;21.42;39.95;93443.13;5125377;28;20015;-75
2022/05/23 08:49:45;;;;;;;5.57;1.48;;;;;;;21.56;39.26;93431.44;5125978;28;20042;-74
2022/05/23 08:52:40;;;;;;;3.35;2.00;;;;;;;21.50;38.53;93440.41;5125551;28;20100;-75
2022/05/23 08:55:17;;;;;;;3.40;1.85;;;;;;;21.48;37.78;93437.31;5125472;28;20043;-75
2022/05/23 08:57:50;;;;;;;7.97;1.98;;;;;;;21.62;37.72;93427.16;5125602;28;20333;-73
2022/05/23 09:00:20;;;;;;;5.10;1.70;;;;;;;21.67;36.87;93420.56;5125396;28;20095;-74
2022/05/23 09:02:54;;;;;;;4.18;1.60;;;;;;;21.70;36.90;93424.44;5125653;28;20030;-75
2022/05/23 09:05:32;;;;;;;2.28;1.50;;;;;;;21.55;37.03;93415.56;5125516;28;20023;-74
2022/05/23 09:08:20;;;;;;;4.47;1.50;;;;;;;21.65;36.15;93417.47;5125280;28;20015;-74
2022/05/23 09:10:54;;;;;;;6.53;1.63;;;;;;;21.74;36.21;93406.97;5125349;28;20077;-74
2022/05/23 09:13:23;;;;;;;8.85;1.30;;;;;;;21.90;36.27;93417.38;5125238;28;20053;-74
2022/05/23 09:15:52;;;;;;;4.70;1.65;;;;;;;22.06;36.03;93413.38;5125118;28;20027;-72
2022/05/23 09:18:22;;;;;;;7.30;1.38;;;;;;;22.15;33.75;93408.31;5125099;28;20023;-74
2022/05/23 09:20:52;;;;;;;7.20;1.67;;;;;;;22.14;35.33;93407.50;5125436;28;20019;-74
2022/05/23 09:23:23;;;;;;;4.10;1.20;;;;;;;22.36;34.27;93415.56;5125292;28;20016;-76
2022/05/23 09:25:52;;;;;;;8.73;1.45;;;;;;;22.26;33.35;93406.31;5125142;28;20030;-77
2022/05/23 09:28:28;;;;;;;3.05;1.10;;;;;;;22.14;33.68;93406.75;5125094;28;20051;-73
2022/05/23 09:31:07;;;;;;;4.70;1.45;;;;;;;22.18;33.63;93386.56;5125370;28;20019;-74
2022/05/23 09:33:42;;;;;;;3.35;1.45;;;;;;;22.11;33.75;93407.56;5125541;28;20277;-74
2022/05/23 09:36:13;;;;;;;3.58;1.35;;;;;;;22.09;33.13;93401.75;5125110;28;20131;-74
2022/05/23 09:38:46;;;;;;;6.38;1.77;;;;;;;22.07;32.78;93402.16;5125350;28;20031;-73
2022/05/23 09:49:49;;;;;;;8.02;1.55;;;;;;;22.32;33.30;93402.00;5124858;28;20030;-76
2022/05/23 09:52:32;;;;;;;7.07;1.30;;;;;;;22.43;32.86;93404.66;5124042;28;20023;-77
2022/05/23 09:55:07;;;;;;;11.73;1.73;;;;;;;22.53;34.78;93376.66;5124446;28;20058;-77
2022/05/23 09:57:39;;;;;;;3.45;1.45;;;;;;;22.60;33.76;93383.97;5124723;28;20030;-77
2022/05/23 10:00:10;;;;;;;10.40;1.42;;;;;;;22.41;32.99;93396.16;5124681;28;20016;-77
2022/05/23 10:02:37;;;;;;;3.97;1.35;;;;;;;22.20;33.43;93395.06;5124725;28;20213;-76
2022/05/23 10:05:07;;;;;;;4.20;1.35;;;;;;;22.24;33.54;93390.41;5124758;28;20043;-76
2022/05/23 10:07:36;;;;;;;4.00;1.70;;;;;;;22.35;31.38;93381.44;5124476;28;20262;-77
2022/05/23 10:10:18;;;;;;;8.15;1.45;;;;;;;22.40;32.68;93394.59;5124253;28;20335;-76
2022/05/23 10:12:44;;;;;;;3.92;1.50;;;;;;;22.36;33.10;93394.59;5124215;28;20034;-75
2022/05/23 10:15:25;;;;;;;7.72;2.00;;;;;;;22.37;32.37;93423.31;5123983;28;20234;-73
2022/05/23 10:18:07;;;;;;;8.07;1.60;;;;;;;22.23;31.57;93413.31;5124366;28;20019;-77
2022/05/23 10:20:39;;;;;;;3.88;1.40;;;;;;;22.13;32.49;93397.84;5124148;28;20016;-79
2022/05/23 10:23:13;;;;;;;9.15;1.25;;;;;;;22.01;31.97;93396.34;5124110;28;20024;-83
2022/05/23 10:25:58;;;;;;;3.72;1.23;;;;;;;22.07;32.03;93388.56;5123888;28;20027;-78
2022/05/23 10:28:53;;;;;;;4.32;1.55;;;;;;;22.19;32.44;93388.13;5123738;28;20019;-77
2022/05/23 10:31:26;;;;;;;8.52;1.45;;;;;;;22.31;33.20;93369.81;5122086;28;20199;-78
2022/05/23 10:34:03;;;;;;;3.55;1.40;;;;;;;22.36;31.84;93400.03;5123560;28;20083;-78
2022/05/23 10:36:30;;;;;;;7.55;1.48;;;;;;;22.44;31.52;93381.75;5123802;28;20273;-78
2022/05/23 10:42:24;;;;;;;2.70;1.20;;;;;;;22.71;33.33;93362.91;5123800;28;20046;-79
2022/05/23 10:44:52;;;;;;;3.63;1.25;;;;;;;22.62;31.71;93355.22;5123637;28;20016;-78
2022/05/23 10:47:37;;;;;;;3.88;1.30;;;;;;;22.58;33.56;93351.00;5123652;28;20274;-77
2022/05/23 10:50:18;;;;;;;2.72;1.10;;;;;;;22.48;32.37;93358.06;5123443;28;20024;-77
2022/05/23 10:53:08;;;;;;;5.53;1.45;;;;;;;22.40;32.74;93353.88;5123412;28;20306;-76
2022/05/23 10:55:52;;;;;;;2.42;1.02;;;;;;;22.53;32.93;93346.78;5123009;28;20028;-76
2022/05/23 10:58:17;;;;;;;2.15;1.33;;;;;;;22.62;31.96;93347.06;5122072;28;20027;-76
2022/05/23 11:01:08;;;;;;;1.67;0.98;;;;;;;22.53;31.03;93367.72;5122683;28;20034;-78
2022/05/23 11:04:24;;;;;;;3.00;1.50;;;;;;;22.61;30.59;93352.91;5123309;28;20312;-76
2022/05/23 11:06:59;;;;;;;9.82;1.42;;;;;;;22.69;30.43;93359.03;5088112;28;20094;-78
2022/05/23 11:09:43;;;;;;;4.07;0.98;;;;;;;22.73;30.18;93362.50;5123300;28;20032;-81
2022/05/23 11:12:31;;;;;;;4.75;1.17;;;;;;;22.78;30.26;93351.22;5123533;28;20033;-78
2022/05/23 11:15:17;;;;;;;2.47;1.10;;;;;;;22.82;29.36;93365.53;5123070;28;20035;-79
2022/05/23 11:17:52;;;;;;;5.22;1.35;;;;;;;22.84;28.52;93347.66;5123081;28;20314;-77
2022/05/23 11:20:29;;;;;;;4.28;1.10;;;;;;;22.80;30.94;93340.72;5123261;28;20045;-78
2022/05/23 11:23:04;;;;;;;2.13;0.85;;;;;;;22.77;30.79;93338.78;5123095;28;20028;-77
2022/05/23 11:25:34;;;;;;;1.90;1.48;;;;;;;22.81;31.33;93345.72;5123240;28;20274;-77
2022/05/23 11:34:23;;;;;;;6.30;1.40;;;;;;;22.99;27.60;93353.69;5122936;28;20049;-77
2022/05/23 11:37:00;;;;;;;3.05;1.65;;;;;;;22.95;29.36;93342.09;5122927;28;20048;-77
2022/05/23 11:39:44;;;;;;;9.48;1.48;;;;;;;22.90;30.27;93339.84;5122926;28;20019;-77
2022/05/23 11:42:11;;;;;;;2.85;1.27;;;;;;;23.00;29.25;93349.06;5122896;28;20028;-77
2022/05/23 11:44:43;;;;;;;3.75;1.20;;;;;;;22.89;29.73;93343.72;5122950;28;20020;-78
2022/05/23 11:47:11;;;;;;;;;;;;;;;22.93;30.53;93344.44;5123288;28;20062;-77
2022/05/23 11:49:47;;;;;;;5.43;1.60;;;;;;;22.93;29.60;93339.00;5104662;28;20190;-75
2022/05/23 11:52:44;;;;;;;2.25;1.25;;;;;;;22.93;30.87;93340.97;5122796;28;20023;-79
2022/05/23 11:55:31;;;;;;;7.40;1.33;;;;;;;22.97;30.03;93361.47;5117913;28;20070;-77
2022/05/23 11:58:36;;;;;;;3.90;1.40;;;;;;;23.11;29.10;93343.53;5122703;28;20094;-80
2022/05/23 12:01:15;;;;;;;4.20;1.88;;;;;;;23.23;28.41;93351.91;5122729;28;20028;-77
2022/05/23 12:03:56;;;;;;;1.92;1.08;;;;;;;23.13;29.24;93352.03;5122779;28;20026;-78
2022/05/23 12:06:24;;;;;;;4.97;1.27;;;;;;;23.29;29.76;93354.19;5122924;28;20027;-78
2022/05/23 12:09:07;;;;;;;2.30;1.20;;;;;;;23.38;28.56;93357.19;5104599;28;20059;-78
2022/05/23 12:12:12;;;;;;;5.13;1.33;;;;;;;23.30;28.57;93361.94;5122478;28;20255;-80
2022/05/23 12:14:37;;;;;;;2.28;1.42;;;;;;;23.31;28.38;93357.28;5122679;28;20020;-77
2022/05/23 12:17:08;;;;;;;4.45;1.20;;;;;;;23.35;28.72;93350.63;5122923;28;20068;-79
2022/05/23 12:19:40;;;;;;;9.57;1.50;;;;;;;23.47;27.97;93343.09;5126370;28;20024;-78
2022/05/23 12:22:17;;;;;;;2.40;1.27;;;;;;;23.62;27.88;93355.34;5126486;28;20047;-78
2022/05/23 12:25:08;;;;;;;3.08;1.10;;;;;;;23.75;28.22;93337.31;5126098;28;20024;-78
2022/05/23 12:28:00;;;;;;;6.22;1.45;;;;;;;23.81;28.07;93345.78;5126067;28;20064;-79
2022/05/23 12:30:26;;;;;;;;;;;;;;;23.98;28.60;93336.63;5126430;28;20027;-80
2022/05/23 12:33:00;;;;;;;4.28;1.15;;;;;;;24.09;27.44;93330.25;5125955;28;19904;-80
2022/05/23 12:35:44;;;;;;;3.90;1.10;;;;;;;24.16;27.35;93327.41;5126084;28;20027;-80
2022/05/23 12:38:18;;;;;;;6.15;1.35;;;;;;;24.19;27.81;93326.59;5126268;28;20130;-78
2022/05/23 12:40:56;;;;;;;3.75;1.20;;;;;;;24.30;27.44;93359.09;5126602;28;20028;-78
2022/05/23 12:43:34;;;;;;;2.47;1.08;;;;;;;24.19;26.21;93338.25;5126283;28;20011;-78
2022/05/23 12:46:22;;;;;;;2.72;1.10;;;;;;;24.14;28.33;93336.00;5125847;28;20023;-78